Time;durP1;ratioP1;P1;durP2;ratioP2;P2;SDS_P1;SDS_P2;PMS_P1;PMS_P2;Temp;Humidity;BMP_temperature;BMP_pressure;BME280_temperature;BME280_humidity;BME280_pressure;Samples;Min_cycle;Max_cycle;Signal;HPM_P1;HPM_P2
2021/09/13 00:00:10;;;;;;;12.47;9.65;;;;;;;17.98;73.05;100713.33;1773359;79;25672;-68
2021/09/13 00:02:38;;;;;;;12.15;10.08;;;;;;;17.96;73.03;100715.30;1774956;79;26844;-69
2021/09/13 00:05:06;;;;;;;15.60;10.48;;;;;;;17.94;73.03;100710.47;1770430;79;26486;-68
2021/09/13 00:07:32;;;;;;;13.80;10.35;;;;;;;17.91;73.07;100714.27;1727290;81;26513;-68
2021/09/13 00:09:58;;;;;;;14.98;10.48;;;;;;;17.89;73.12;100713.52;1716120;82;27873;-68
2021/09/13 00:12:24;;;;;;;16.17;10.85;;;;;;;17.86;73.11;100710.16;1711730;81;25821;-68
2021/09/13 00:14:50;;;;;;;14.75;11.28;;;;;;;17.84;73.13;100715.20;1714324;82;29606;-68
2021/09/13 00:17:16;;;;;;;13.65;10.53;;;;;;;17.80;73.21;100723.18;1707971;81;26625;-68
2021/09/13 00:19:42;;;;;;;14.20;10.23;;;;;;;17.77;73.20;100722.05;1712238;81;25740;-68
2021/09/13 00:22:08;;;;;;;14.78;10.82;;;;;;;17.73;73.25;100713.75;1713195;81;25844;-68
2021/09/13 00:24:34;;;;;;;16.57;10.88;;;;;;;17.71;73.24;100714.84;1713888;81;25776;-68
2021/09/13 00:27:00;;;;;;;15.78;11.15;;;;;;;17.66;73.29;100714.30;1717635;81;28361;-68
2021/09/13 00:29:25;;;;;;;13.88;10.58;;;;;;;17.63;73.30;100718.07;1714648;81;26409;-68
2021/09/13 00:31:51;;;;;;;16.60;10.72;;;;;;;17.61;73.34;100717.31;1734116;81;25870;-68
2021/09/13 00:34:17;;;;;;;16.45;10.58;;;;;;;17.59;73.37;100717.91;1734595;81;25850;-68
2021/09/13 00:36:43;;;;;;;18.12;11.73;;;;;;;17.54;73.34;100713.30;1715114;81;25827;-68
2021/09/13 00:39:09;;;;;;;12.73;10.63;;;;;;;17.50;73.40;100720.78;1720973;81;27404;-68
2021/09/13 00:41:35;;;;;;;14.10;11.25;;;;;;;17.45;73.41;100717.53;1708968;82;27283;-68
2021/09/13 00:44:02;;;;;;;16.77;11.48;;;;;;;17.42;73.49;100717.75;1710394;81;25795;-68
2021/09/13 00:46:28;;;;;;;14.60;12.05;;;;;;;17.38;73.54;100709.95;1710997;81;25774;-69
2021/09/13 00:48:53;;;;;;;14.35;11.10;;;;;;;17.35;73.58;100711.52;1712653;82;25792;-68
2021/09/13 00:51:19;;;;;;;13.88;11.70;;;;;;;17.31;73.63;100714.06;1718438;81;27457;-68
2021/09/13 00:53:45;;;;;;;17.67;11.83;;;;;;;17.24;73.70;100719.53;1718249;81;26472;-69
2021/09/13 00:56:11;;;;;;;17.75;12.63;;;;;;;17.20;73.80;100718.39;1705837;81;26457;-69
2021/09/13 00:58:38;;;;;;;17.98;11.95;;;;;;;17.18;73.88;100718.98;1710812;81;25773;-68
2021/09/13 01:01:05;;;;;;;15.23;12.10;;;;;;;17.17;73.99;100725.37;1701188;82;25696;-68
2021/09/13 01:03:33;;;;;;;15.95;12.20;;;;;;;17.16;74.04;100723.64;1677728;82;27472;-69
2021/09/13 01:05:59;;;;;;;17.23;12.43;;;;;;;17.16;74.11;100722.77;1693680;82;25878;-68
2021/09/13 01:08:25;;;;;;;16.10;12.65;;;;;;;17.15;74.14;100725.97;1690851;82;26740;-69
2021/09/13 01:10:55;;;;;;;16.37;12.33;;;;;;;17.12;74.13;100723.95;1730156;81;27820;-69
2021/09/13 01:13:21;;;;;;;20.20;12.40;;;;;;;17.11;74.22;100724.93;1702632;82;25773;-68
2021/09/13 01:15:47;;;;;;;15.28;12.20;;;;;;;17.08;74.29;100721.08;1730847;81;27449;-68
2021/09/13 01:18:13;;;;;;;16.95;12.45;;;;;;;17.07;74.36;100716.15;1714043;82;25848;-69
2021/09/13 01:20:38;;;;;;;17.20;12.60;;;;;;;17.05;74.33;100718.09;1706040;82;25692;-69
2021/09/13 01:23:08;;;;;;;20.08;12.43;;;;;;;17.02;74.39;100716.09;1732732;81;25934;-69
2021/09/13 01:25:36;;;;;;;16.02;11.50;;;;;;;17.00;74.49;100716.68;1698301;82;25721;-69
2021/09/13 01:28:03;;;;;;;16.85;13.05;;;;;;;16.98;74.67;100711.86;1726490;81;27370;-69
2021/09/13 01:30:30;;;;;;;16.80;12.82;;;;;;;16.98;74.81;100715.43;1732973;81;25749;-69
2021/09/13 01:32:56;;;;;;;17.52;12.10;;;;;;;16.98;74.91;100711.86;1726857;81;26393;-69
2021/09/13 01:35:22;;;;;;;16.67;12.50;;;;;;;16.96;75.04;100706.55;1699356;82;25814;-69
2021/09/13 01:37:48;;;;;;;18.25;12.68;;;;;;;16.95;75.10;100706.16;1694315;82;25890;-68
2021/09/13 01:40:14;;;;;;;14.95;11.90;;;;;;;16.95;75.20;100704.81;1694409;82;27599;-69
2021/09/13 01:42:40;;;;;;;17.12;11.88;;;;;;;16.93;75.28;100705.41;1716807;81;25877;-69
2021/09/13 01:45:07;;;;;;;16.70;12.70;;;;;;;16.92;75.41;100705.02;1733891;81;26478;-69
2021/09/13 01:47:34;;;;;;;17.02;13.55;;;;;;;16.92;75.46;100704.16;1696902;82;26500;-69
2021/09/13 01:49:59;;;;;;;16.65;12.58;;;;;;;16.88;75.53;100703.50;1711850;82;25803;-68
2021/09/13 01:52:25;;;;;;;18.25;13.08;;;;;;;16.86;75.49;100701.37;1723367;81;27820;-68
2021/09/13 01:54:51;;;;;;;20.48;13.18;;;;;;;16.84;75.55;100696.56;1709981;82;25855;-68
2021/09/13 01:57:17;;;;;;;19.30;13.75;;;;;;;16.83;75.62;100693.47;1712280;82;25837;-68
2021/09/13 01:59:43;;;;;;;23.07;12.58;;;;;;;16.82;75.63;100694.44;1731739;81;25834;-68
2021/09/13 02:02:08;;;;;;;14.73;12.13;;;;;;;16.80;75.68;100698.61;1722218;81;25775;-68
2021/09/13 02:04:34;;;;;;;19.55;13.72;;;;;;;16.80;75.72;100705.86;1718630;81;28369;-68
2021/09/13 02:07:00;;;;;;;24.75;14.50;;;;;;;16.78;75.79;100708.67;1731914;81;27255;-68
2021/09/13 02:09:26;;;;;;;18.65;12.90;;;;;;;16.75;75.76;100703.95;1727611;81;25814;-68
2021/09/13 02:11:52;;;;;;;20.55;12.78;;;;;;;16.73;75.79;100707.25;1729589;81;27886;-68
2021/09/13 02:14:17;;;;;;;19.10;12.78;;;;;;;16.72;75.79;100700.10;1733135;81;25701;-68
2021/09/13 02:16:43;;;;;;;17.10;12.85;;;;;;;16.72;75.83;100710.44;1731873;81;27348;-68
2021/09/13 02:19:09;;;;;;;18.60;13.18;;;;;;;16.71;75.72;100713.25;1721108;81;25800;-68
2021/09/13 02:21:35;;;;;;;17.50;13.25;;;;;;;16.69;75.81;100707.08;1733536;81;25795;-68
2021/09/13 02:24:01;;;;;;;16.82;12.85;;;;;;;16.67;75.82;100717.14;1732355;81;25948;-68
2021/09/13 02:26:27;;;;;;;19.12;13.70;;;;;;;16.66;75.81;100714.92;1730706;81;26466;-68
2021/09/13 02:28:53;;;;;;;19.32;13.98;;;;;;;16.65;75.88;100712.31;1730229;81;27454;-68
2021/09/13 02:31:19;;;;;;;21.40;14.90;;;;;;;16.62;75.92;100707.07;1732578;81;27183;-68
2021/09/13 02:33:45;;;;;;;16.05;13.53;;;;;;;16.61;75.94;100712.10;1730899;81;25741;-69
2021/09/13 02:36:11;;;;;;;17.98;13.75;;;;;;;16.59;75.95;100714.05;1726629;81;25802;-68
2021/09/13 02:38:37;;;;;;;18.27;14.40;;;;;;;16.56;75.95;100720.05;1724612;81;26474;-68
2021/09/13 02:41:03;;;;;;;22.32;14.03;;;;;;;16.52;75.95;100719.00;1720595;81;29569;-68
2021/09/13 02:43:29;;;;;;;21.35;15.63;;;;;;;16.48;76.03;100722.39;1719867;81;26033;-69
2021/09/13 02:45:54;;;;;;;23.57;13.65;;;;;;;16.45;76.10;100724.44;1720561;81;25934;-68
2021/09/13 02:48:20;;;;;;;19.92;13.45;;;;;;;16.40;76.01;100725.23;1709376;81;25950;-69
2021/09/13 02:50:46;;;;;;;22.22;15.05;;;;;;;16.35;76.12;100721.95;1722765;81;25799;-69
2021/09/13 02:53:12;;;;;;;19.67;13.95;;;;;;;16.30;76.35;100721.39;1733418;81;27407;-69
2021/09/13 02:55:38;;;;;;;24.05;14.83;;;;;;;16.29;76.46;100719.66;1722086;81;25796;-68
2021/09/13 02:58:04;;;;;;;21.95;15.15;;;;;;;16.29;76.55;100716.95;1724408;81;26091;-68
2021/09/13 03:00:29;;;;;;;22.50;14.45;;;;;;;16.29;76.64;100724.58;1728242;81;25818;-69
2021/09/13 03:02:55;;;;;;;21.25;14.47;;;;;;;16.29;76.63;100726.42;1711186;81;25825;-68
2021/09/13 03:05:21;;;;;;;20.32;15.15;;;;;;;16.29;76.70;100722.36;1725872;81;27411;-68
2021/09/13 03:07:47;;;;;;;22.67;15.80;;;;;;;16.28;76.76;100726.91;1728921;81;26008;-68
2021/09/13 03:10:14;;;;;;;24.50;14.83;;;;;;;16.29;76.78;100733.18;1728962;81;25776;-68
2021/09/13 03:12:40;;;;;;;23.85;15.75;;;;;;;16.26;76.80;100725.27;1727197;81;25954;-69
2021/09/13 03:15:09;;;;;;;22.27;15.90;;;;;;;16.22;76.82;100733.58;1723096;81;25766;-68
2021/09/13 03:17:35;;;;;;;24.15;15.95;;;;;;;16.19;76.86;100732.91;1721924;81;28124;-68
2021/09/13 03:20:02;;;;;;;23.22;16.48;;;;;;;16.17;76.91;100728.09;1722334;81;27298;-69
2021/09/13 03:22:28;;;;;;;20.70;15.80;;;;;;;16.13;76.95;100724.72;1728118;81;26463;-69
2021/09/13 03:24:54;;;;;;;22.73;16.27;;;;;;;16.11;77.02;100737.95;1729098;81;25870;-69
2021/09/13 03:27:20;;;;;;;25.77;16.50;;;;;;;16.09;77.03;100729.94;1728109;81;25731;-68
2021/09/13 03:29:45;;;;;;;23.55;16.80;;;;;;;16.07;77.12;100727.81;1731882;81;27412;-68
2021/09/13 03:32:11;;;;;;;22.60;16.85;;;;;;;16.06;77.17;100738.25;1732244;81;26320;-68
2021/09/13 03:34:37;;;;;;;21.73;17.05;;;;;;;16.05;77.22;100737.00;1731760;81;25920;-69
2021/09/13 03:37:03;;;;;;;23.35;16.45;;;;;;;16.02;77.24;100739.89;1716382;81;25853;-69
2021/09/13 03:39:30;;;;;;;30.52;17.50;;;;;;;16.00;77.29;100744.53;1720233;81;26333;-69
2021/09/13 03:41:56;;;;;;;25.52;16.10;;;;;;;15.96;77.34;100738.45;1728485;81;28693;-69
2021/09/13 03:44:22;;;;;;;22.62;16.02;;;;;;;15.94;77.39;100743.58;1722305;81;26329;-69
2021/09/13 03:46:48;;;;;;;27.70;16.67;;;;;;;15.92;77.49;100743.67;1722537;81;26559;-68
2021/09/13 03:49:14;;;;;;;23.70;17.30;;;;;;;15.89;77.54;100743.39;1732432;81;27891;-70
2021/09/13 03:51:40;;;;;;;21.85;16.60;;;;;;;15.87;77.57;100741.75;1731756;81;25806;-69
2021/09/13 03:54:05;;;;;;;24.37;17.05;;;;;;;15.85;77.62;100745.90;1724996;81;27408;-68
2021/09/13 03:56:31;;;;;;;25.80;17.60;;;;;;;15.82;77.58;100743.39;1725964;81;26347;-69
2021/09/13 03:58:57;;;;;;;23.75;15.83;;;;;;;15.81;77.75;100744.84;1720182;81;25856;-69
2021/09/13 04:01:23;;;;;;;27.55;17.70;;;;;;;15.79;77.78;100744.94;1726639;81;25888;-69
2021/09/13 04:03:51;;;;;;;24.85;15.78;;;;;;;15.76;77.85;100747.83;1724396;81;25909;-69
2021/09/13 04:09:42;;;;;;;27.10;17.45;;;;;;;15.70;77.97;100742.81;1737913;81;25972;-69
2021/09/13 04:11:48;;;;;;;28.02;18.82;;;;;;;15.67;78.07;100738.09;1721100;81;25733;-68
2021/09/13 04:14:03;;;;;;;27.48;17.32;;;;;;;15.64;78.17;100737.80;1728376;81;26466;-69
2021/09/13 04:16:29;;;;;;;25.20;17.73;;;;;;;15.62;78.24;100735.67;1720264;81;25773;-70
2021/09/13 04:18:55;;;;;;;25.92;18.75;;;;;;;15.60;78.35;100739.47;1726088;81;27388;-69
2021/09/13 04:21:21;;;;;;;26.42;17.90;;;;;;;15.57;78.44;100739.18;1727107;81;26240;-69
2021/09/13 04:23:47;;;;;;;25.10;17.52;;;;;;;15.55;78.48;100732.97;1700221;81;25876;-69
2021/09/13 04:26:12;;;;;;;29.75;18.60;;;;;;;15.53;78.50;100734.41;1728235;81;25945;-69
2021/09/13 04:28:38;;;;;;;25.80;18.40;;;;;;;15.51;78.61;100734.12;1732398;81;26098;-68
2021/09/13 04:31:04;;;;;;;26.52;18.45;;;;;;;15.48;78.68;100737.02;1727029;81;27434;-68
2021/09/13 04:33:30;;;;;;;30.23;19.40;;;;;;;15.48;78.75;100732.96;1723096;81;25830;-69
2021/09/13 04:35:56;;;;;;;27.10;18.80;;;;;;;15.47;78.81;100732.58;1734673;81;25822;-69
2021/09/13 04:38:21;;;;;;;26.02;18.73;;;;;;;15.44;78.87;100730.94;1701466;82;27461;-69
2021/09/13 04:40:48;;;;;;;36.45;18.12;;;;;;;15.44;78.99;100733.64;1727962;81;25775;-69
2021/09/13 04:43:14;;;;;;;29.92;17.73;;;;;;;15.45;78.99;100733.16;1694232;82;29675;-69
2021/09/13 04:45:39;;;;;;;27.25;18.27;;;;;;;15.43;79.11;100737.78;1733227;81;27219;-69
2021/09/13 04:48:05;;;;;;;31.10;16.52;;;;;;;15.41;79.17;100739.23;1730616;81;25849;-69
2021/09/13 04:50:31;;;;;;;27.22;18.00;;;;;;;15.42;79.15;100749.55;1689037;81;25842;-69
2021/09/13 04:52:57;;;;;;;34.48;18.45;;;;;;;15.40;79.31;100743.38;1725609;81;25799;-69
2021/09/13 04:55:23;;;;;;;30.10;18.80;;;;;;;15.39;79.43;100744.34;1718782;81;28321;-69
2021/09/13 04:57:49;;;;;;;27.98;19.05;;;;;;;15.40;79.48;100739.33;1729576;81;25711;-69
2021/09/13 05:00:16;;;;;;;37.17;17.77;;;;;;;15.40;79.60;100747.42;1724527;81;25901;-68
2021/09/13 05:02:42;;;;;;;34.98;18.52;;;;;;;15.38;79.71;100744.81;1724149;81;25823;-68
2021/09/13 05:05:09;;;;;;;31.87;18.48;;;;;;;15.40;79.77;100743.38;1706357;81;25808;-68
2021/09/13 05:07:35;;;;;;;45.25;18.12;;;;;;;15.41;79.82;100749.16;1725136;81;27481;-69
2021/09/13 05:10:03;;;;;;;51.42;18.95;;;;;;;15.41;79.85;100746.47;1725590;81;26120;-68
2021/09/13 05:12:29;;;;;;;47.17;20.23;;;;;;;15.42;79.95;100748.20;1723869;81;26340;-68
2021/09/13 05:14:54;;;;;;;35.33;18.12;;;;;;;15.43;80.01;100752.64;1731617;81;25784;-68
2021/09/13 05:17:20;;;;;;;33.45;18.67;;;;;;;15.46;80.02;100751.09;1736775;81;25792;-68
2021/09/13 05:19:46;;;;;;;29.55;17.95;;;;;;;15.46;80.10;100760.55;1724771;81;27431;-68
2021/09/13 05:22:12;;;;;;;30.20;17.70;;;;;;;15.48;80.18;100764.03;1729954;81;26266;-68
2021/09/13 05:24:38;;;;;;;29.80;18.02;;;;;;;15.49;80.19;100762.59;1716551;81;25833;-68
2021/09/13 05:27:04;;;;;;;31.33;18.40;;;;;;;15.51;80.25;100762.01;1718916;81;25813;-68
2021/09/13 05:29:31;;;;;;;33.85;18.20;;;;;;;15.52;80.28;100762.87;1722088;81;25929;-69
2021/09/13 05:31:57;;;;;;;31.05;18.60;;;;;;;15.52;80.40;100758.83;1718533;81;27421;-68
2021/09/13 05:34:22;;;;;;;30.15;17.02;;;;;;;15.52;80.37;100758.83;1719814;81;26882;-68
2021/09/13 05:36:48;;;;;;;30.88;17.87;;;;;;;15.55;80.47;100751.87;1725252;81;26473;-69
2021/09/13 05:39:14;;;;;;;33.42;18.92;;;;;;;15.57;80.44;100756.25;1725972;81;26030;-68
2021/09/13 05:41:41;;;;;;;38.20;18.65;;;;;;;15.61;80.44;100763.66;1716581;81;25746;-68
2021/09/13 05:44:07;;;;;;;29.82;17.65;;;;;;;15.64;80.40;100767.52;1723577;81;27475;-69
2021/09/13 05:46:33;;;;;;;46.30;20.90;;;;;;;15.67;80.48;100770.03;1725983;81;25883;-69
2021/09/13 05:48:59;;;;;;;28.17;18.00;;;;;;;15.71;80.58;100768.00;1716318;81;25802;-69
2021/09/13 05:51:25;;;;;;;33.73;17.87;;;;;;;15.75;80.71;100771.77;1722936;81;26571;-69
2021/09/13 05:53:51;;;;;;;29.63;16.90;;;;;;;15.79;80.67;100772.45;1720095;81;25850;-69
2021/09/13 05:56:16;;;;;;;44.50;19.37;;;;;;;15.82;80.68;100774.95;1703073;82;27503;-69
2021/09/13 05:58:42;;;;;;;48.20;18.73;;;;;;;15.85;80.70;100775.63;1706876;82;26271;-69
2021/09/13 06:01:08;;;;;;;36.33;18.67;;;;;;;15.89;80.68;100775.83;1732128;81;25962;-69
2021/09/13 06:03:34;;;;;;;26.60;17.55;;;;;;;15.94;80.70;100781.42;1734277;81;26795;-69
2021/09/13 06:06:00;;;;;;;29.02;17.77;;;;;;;15.98;80.74;100780.27;1728287;81;25764;-70
2021/09/13 06:08:26;;;;;;;27.70;18.00;;;;;;;16.02;80.79;100781.80;1726920;81;27910;-69
2021/09/13 06:10:52;;;;;;;25.32;16.42;;;;;;;16.04;80.82;100786.63;1728326;81;25774;-70
2021/09/13 06:13:18;;;;;;;24.00;15.85;;;;;;;16.08;80.82;100786.34;1718079;81;25784;-70
2021/09/13 06:15:44;;;;;;;31.25;15.55;;;;;;;16.12;80.98;100785.17;1729768;81;27021;-67
2021/09/13 06:18:11;;;;;;;27.07;16.45;;;;;;;16.14;80.97;100785.95;1726961;81;26558;-67
2021/09/13 06:20:38;;;;;;;21.15;16.40;;;;;;;16.18;80.92;100787.48;1729160;81;27492;-67
2021/09/13 06:23:03;;;;;;;29.80;15.32;;;;;;;16.23;80.89;100786.70;1728452;81;25959;-68
2021/09/13 06:25:29;;;;;;;33.53;15.85;;;;;;;16.27;80.79;100791.92;1687527;82;25835;-69
2021/09/13 06:27:55;;;;;;;21.73;14.87;;;;;;;16.32;80.74;100787.95;1729535;81;26505;-68
2021/09/13 06:30:21;;;;;;;23.47;15.23;;;;;;;16.38;80.71;100786.68;1729752;80;25911;-69
2021/09/13 06:32:47;;;;;;;25.30;15.35;;;;;;;16.40;80.69;100781.55;1712530;82;27565;-68
2021/09/13 06:35:13;;;;;;;23.05;14.40;;;;;;;16.45;80.70;100792.94;1732304;81;26051;-68
2021/09/13 06:37:39;;;;;;;27.00;14.60;;;;;;;16.50;80.58;100792.16;1728544;81;25842;-68
2021/09/13 06:40:07;;;;;;;22.30;16.00;;;;;;;16.54;80.44;100789.63;1731868;81;25986;-68
2021/09/13 06:42:33;;;;;;;24.95;14.07;;;;;;;16.61;80.36;100791.45;1713311;82;25691;-68
2021/09/13 06:45:08;;;;;;;22.87;13.65;;;;;;;16.67;80.25;100799.69;1732916;81;27500;-69
2021/09/13 06:49:56;;;;;;;20.95;12.53;;;;;;;16.73;79.90;100793.37;1731280;81;26441;-67
2021/09/13 06:52:22;;;;;;;18.15;11.15;;;;;;;16.81;79.78;100795.58;1725031;81;25766;-67
2021/09/13 06:54:47;;;;;;;27.93;11.78;;;;;;;16.90;79.66;100803.08;1728441;81;25798;-68
2021/09/13 06:57:13;;;;;;;16.97;11.50;;;;;;;16.97;79.54;100800.34;1731659;81;29744;-68
2021/09/13 06:59:41;;;;;;;26.40;12.43;;;;;;;17.03;79.27;100793.65;1745036;81;26127;-68
2021/09/13 07:02:08;;;;;;;14.85;11.05;;;;;;;17.13;79.01;100792.05;1732534;81;25949;-67
2021/09/13 07:04:34;;;;;;;17.73;10.93;;;;;;;17.17;78.79;100791.73;1732709;81;25883;-67
2021/09/13 07:07:00;;;;;;;18.27;10.50;;;;;;;17.26;78.70;100794.78;1736917;81;25973;-67
2021/09/13 07:09:26;;;;;;;13.10;8.88;;;;;;;17.34;78.45;100800.55;1726433;81;28134;-67
2021/09/13 07:11:52;;;;;;;15.20;9.35;;;;;;;17.36;78.06;100796.76;1730430;81;25882;-67
2021/09/13 07:14:18;;;;;;;15.60;8.98;;;;;;;17.39;77.80;100803.32;1731423;81;26274;-67
2021/09/13 07:16:44;;;;;;;11.65;6.87;;;;;;;17.43;77.42;100802.63;1731299;81;25838;-67
2021/09/13 07:19:09;;;;;;;11.65;7.10;;;;;;;17.47;77.13;100805.50;1725213;81;25871;-68
2021/09/13 07:21:35;;;;;;;18.77;8.48;;;;;;;17.51;76.41;100812.44;1730120;81;28160;-68
2021/09/13 07:24:02;;;;;;;19.27;8.03;;;;;;;17.57;76.32;100806.59;1728439;81;25820;-68
2021/09/13 07:26:28;;;;;;;14.38;7.65;;;;;;;17.65;76.11;100816.41;1731884;81;25780;-68
2021/09/13 07:28:54;;;;;;;13.88;7.60;;;;;;;17.73;75.85;100818.62;1734215;81;25786;-68
2021/09/13 07:31:20;;;;;;;11.88;7.67;;;;;;;17.78;75.60;100824.09;1729089;81;26013;-68
2021/09/13 07:33:46;;;;;;;12.82;7.80;;;;;;;17.79;75.34;100829.90;1730792;81;28223;-68
2021/09/13 07:36:12;;;;;;;9.48;7.20;;;;;;;17.79;75.17;100828.55;1731267;81;26649;-67
2021/09/13 07:38:38;;;;;;;10.98;6.95;;;;;;;17.79;75.04;100827.19;1725846;81;25861;-67
2021/09/13 07:41:04;;;;;;;8.00;6.22;;;;;;;17.81;74.87;100833.37;1730206;81;26785;-68
2021/09/13 07:43:30;;;;;;;8.98;6.33;;;;;;;17.80;74.49;100834.84;1727947;81;25813;-68
2021/09/13 07:45:56;;;;;;;10.85;6.53;;;;;;;17.83;74.43;100842.76;1732740;81;29399;-67
2021/09/13 07:48:22;;;;;;;7.60;5.80;;;;;;;17.82;73.81;100834.24;1732316;81;25739;-68
2021/09/13 07:50:49;;;;;;;5.50;4.87;;;;;;;17.83;73.70;100839.55;1722167;81;25801;-68
2021/09/13 07:53:15;;;;;;;6.55;4.97;;;;;;;17.83;73.42;100843.63;1731351;81;27159;-68
2021/09/13 07:55:41;;;;;;;6.05;4.50;;;;;;;17.87;73.25;100847.47;1728245;81;25844;-68
2021/09/13 07:58:07;;;;;;;6.97;4.65;;;;;;;17.89;72.78;100845.52;1728364;81;27919;-68
2021/09/13 08:00:33;;;;;;;6.50;4.70;;;;;;;17.94;72.76;100839.28;1725884;81;26186;-69
2021/09/13 08:02:58;;;;;;;11.73;4.83;;;;;;;18.01;72.32;100840.09;1732542;81;26324;-68
2021/09/13 08:05:24;;;;;;;19.32;4.92;;;;;;;18.06;72.31;100840.64;1719334;81;25853;-68
2021/09/13 08:07:50;;;;;;;8.80;4.65;;;;;;;18.11;72.03;100845.25;1697768;82;25727;-68
2021/09/13 08:10:16;;;;;;;47.90;19.42;;;;;;;18.18;71.84;100848.39;1727784;81;27446;-68
2021/09/13 08:12:42;;;;;;;12.07;6.05;;;;;;;18.22;71.44;100848.52;1715569;82;25519;-68
2021/09/13 08:15:10;;;;;;;16.25;8.68;;;;;;;18.23;71.30;100850.25;1715437;82;26090;-68
2021/09/13 08:17:36;;;;;;;15.05;5.03;;;;;;;18.27;71.04;100855.84;1711925;82;25755;-67
2021/09/13 08:20:04;;;;;;;7.12;4.20;;;;;;;18.30;70.51;100851.54;1717462;82;25493;-68
2021/09/13 08:22:30;;;;;;;4.90;4.10;;;;;;;18.34;69.95;100855.77;1712138;82;27466;-67
2021/09/13 08:24:56;;;;;;;8.33;5.30;;;;;;;18.39;69.77;100868.52;1712726;82;26800;-68
2021/09/13 08:27:22;;;;;;;7.12;3.77;;;;;;;18.43;69.53;100870.03;1709025;82;25808;-68
2021/09/13 08:29:48;;;;;;;12.03;4.05;;;;;;;18.46;68.95;100865.73;1709616;82;27920;-69
2021/09/13 08:32:15;;;;;;;5.65;3.75;;;;;;;18.50;68.03;100860.95;1711713;82;25827;-69
2021/09/13 08:34:41;;;;;;;7.25;3.70;;;;;;;18.55;67.62;100866.05;1716280;82;27573;-68
2021/09/13 08:37:07;;;;;;;18.20;4.08;;;;;;;18.59;67.86;100856.70;1713797;82;27340;-68
2021/09/13 08:39:33;;;;;;;36.48;6.12;;;;;;;18.65;67.25;100861.71;1716242;82;25714;-68
2021/09/13 08:42:00;;;;;;;8.63;3.90;;;;;;;18.69;67.11;100868.66;1709840;82;25838;-69
2021/09/13 08:44:26;;;;;;;13.45;4.30;;;;;;;18.70;66.67;100863.59;1713369;82;26725;-68
2021/09/13 08:47:02;;;;;;;9.08;4.37;;;;;;;18.75;66.44;100866.84;1717643;82;27545;-69
2021/09/13 08:49:30;;;;;;;6.22;3.62;;;;;;;18.81;66.41;100874.53;1714984;82;26490;-68
2021/09/13 08:51:56;;;;;;;10.78;4.00;;;;;;;18.88;65.82;100871.74;1711373;82;27873;-69
2021/09/13 08:54:26;;;;;;;22.42;4.62;;;;;;;18.93;66.21;100865.97;1688224;82;25975;-68
2021/09/13 08:56:58;;;;;;;15.25;4.37;;;;;;;18.99;65.87;100872.30;1713875;82;26404;-69
2021/09/13 08:59:25;;;;;;;12.88;4.37;;;;;;;19.10;65.87;100884.59;1711671;82;27353;-69
2021/09/13 09:01:53;;;;;;;19.73;5.08;;;;;;;19.18;65.98;100869.07;1720133;81;25921;-68
2021/09/13 09:07:12;;;;;;;12.03;4.35;;;;;;;19.37;65.29;100872.98;1716449;81;26205;-69
2021/09/13 09:09:38;;;;;;;5.37;3.40;;;;;;;19.35;64.98;100872.23;1720936;81;25822;-69
2021/09/13 09:12:13;;;;;;;9.55;4.10;;;;;;;19.41;64.95;100877.70;1720962;81;28294;-69
2021/09/13 09:14:42;;;;;;;11.55;3.60;;;;;;;19.50;64.83;100878.36;1719392;81;25754;-69
2021/09/13 09:17:25;;;;;;;12.65;4.53;;;;;;;19.60;64.15;100886.70;1716377;81;25733;-69
2021/09/13 09:20:07;;;;;;;9.85;4.17;;;;;;;19.52;63.73;100870.98;1715351;81;27971;-68
2021/09/13 09:22:40;;;;;;;8.23;4.35;;;;;;;19.50;63.92;100871.56;1721502;81;25823;-68
2021/09/13 09:25:08;;;;;;;20.08;4.12;;;;;;;19.52;63.70;100868.27;1710581;81;28148;-69
2021/09/13 09:28:01;;;;;;;23.12;4.92;;;;;;;19.57;63.48;100871.98;1719195;81;25734;-68
2021/09/13 09:30:45;;;;;;;28.12;5.17;;;;;;;19.60;63.42;100883.49;1727824;81;25821;-68
2021/09/13 09:33:18;;;;;;;13.50;4.42;;;;;;;19.64;63.16;100874.11;1719262;81;25768;-68
2021/09/13 09:35:56;;;;;;;23.52;5.00;;;;;;;19.63;63.34;100881.03;1720137;81;25805;-69
2021/09/13 09:38:41;;;;;;;9.70;4.62;;;;;;;19.63;63.19;100879.67;1713415;81;27963;-68
2021/09/13 09:41:11;;;;;;;5.92;3.40;;;;;;;19.63;63.12;100872.88;1718703;81;25900;-70
2021/09/13 09:43:58;;;;;;;9.73;3.63;;;;;;;19.63;63.03;100872.38;1716910;81;25766;-70
2021/09/13 09:46:26;;;;;;;12.45;4.80;;;;;;;19.66;62.91;100872.63;1721004;81;26636;-68
2021/09/13 09:49:08;;;;;;;5.55;3.30;;;;;;;19.80;61.80;100875.14;1716962;81;26253;-68
2021/09/13 09:51:38;;;;;;;9.90;3.08;;;;;;;19.80;61.80;100875.14;1720177;81;28195;-67
2021/09/13 09:54:23;;;;;;;9.40;3.10;;;;;;;19.92;61.93;100876.04;1721843;80;25717;-68
2021/09/13 09:57:02;;;;;;;5.80;3.02;;;;;;;20.15;61.95;100874.22;1719187;81;26520;-69
2021/09/13 09:59:40;;;;;;;12.25;3.70;;;;;;;20.15;61.95;100874.22;1722677;80;25814;-69
2021/09/13 10:02:17;;;;;;;13.25;3.25;;;;;;;20.29;60.85;100869.91;1726099;80;25751;-68
2021/09/13 10:04:46;;;;;;;9.25;2.50;;;;;;;20.26;60.74;100861.98;1723519;81;27442;-68
2021/09/13 10:07:19;;;;;;;9.00;3.55;;;;;;;20.27;60.14;100875.47;1716571;80;26409;-69
2021/09/13 10:09:45;;;;;;;7.87;2.67;;;;;;;20.24;59.57;100874.35;1716053;81;25754;-69
2021/09/13 10:12:12;;;;;;;8.93;3.05;;;;;;;20.17;59.90;100876.33;1716101;81;26496;-69
2021/09/13 10:14:38;;;;;;;19.62;4.10;;;;;;;20.19;59.66;100871.63;1723737;80;25860;-69
2021/09/13 10:17:07;;;;;;;13.43;3.42;;;;;;;20.22;59.15;100879.55;1711810;81;27559;-67
2021/09/13 10:19:35;;;;;;;18.05;3.65;;;;;;;20.21;58.77;100875.95;1713700;80;25859;-68
2021/09/13 10:22:02;;;;;;;24.92;3.42;;;;;;;20.28;58.07;100876.34;1717280;80;25860;-68
2021/09/13 10:24:31;;;;;;;4.87;3.15;;;;;;;20.27;57.77;100879.55;1715600;81;26227;-67
2021/09/13 10:27:11;;;;;;;13.70;3.75;;;;;;;20.30;58.52;100876.58;1719877;81;25700;-67
2021/09/13 10:29:38;;;;;;;13.22;3.83;;;;;;;20.37;58.45;100883.27;1721801;81;27433;-68
2021/09/13 10:32:11;;;;;;;12.20;3.60;;;;;;;20.33;58.12;100887.72;1716086;81;25744;-68
2021/09/13 10:34:49;;;;;;;13.70;3.83;;;;;;;20.30;57.97;100888.83;1722311;80;25925;-69
2021/09/13 10:37:25;;;;;;;9.78;3.72;;;;;;;20.32;58.04;100877.33;1715029;80;25938;-68
2021/09/13 10:40:22;;;;;;;19.37;3.70;;;;;;;20.46;58.19;100884.41;1715169;81;26342;-68
2021/09/13 10:42:54;;;;;;;10.70;3.27;;;;;;;20.52;58.02;100886.64;1708233;81;27631;-68
2021/09/13 10:45:40;;;;;;;7.28;3.50;;;;;;;20.47;57.44;100882.56;1713839;81;26425;-68
2021/09/13 10:48:16;;;;;;;19.80;3.60;;;;;;;20.53;57.75;100887.51;1717116;80;26416;-68
2021/09/13 10:50:55;;;;;;;14.98;4.22;;;;;;;20.64;57.80;100887.50;1714225;81;26245;-68
2021/09/13 10:53:29;;;;;;;9.35;3.40;;;;;;;20.72;57.52;100886.38;1678831;82;25751;-67
2021/09/13 10:56:07;;;;;;;15.05;3.60;;;;;;;20.65;57.45;100887.87;1693016;82;27399;-67
2021/09/13 10:58:43;;;;;;;11.90;4.17;;;;;;;20.81;57.45;100894.27;1697016;81;26385;-67
2021/09/13 11:01:24;;;;;;;13.32;3.62;;;;;;;20.90;57.74;100880.75;1711407;81;25872;-68
2021/09/13 11:03:54;;;;;;;11.95;4.87;;;;;;;21.12;57.77;100881.69;1703913;82;26542;-67
2021/09/13 11:06:24;;;;;;;27.87;4.35;;;;;;;21.16;56.99;100882.66;1712939;81;26231;-68
2021/09/13 11:09:03;;;;;;;10.82;3.15;;;;;;;21.04;55.85;100894.09;1712003;81;27435;-68
2021/09/13 11:11:36;;;;;;;9.10;3.27;;;;;;;20.82;55.68;100887.33;1685811;83;27160;-68
2021/09/13 11:14:13;;;;;;;32.30;4.40;;;;;;;20.82;56.00;100886.45;1709016;82;26681;-66
2021/09/13 11:16:43;;;;;;;19.77;4.08;;;;;;;20.88;55.97;100908.63;1711467;81;25755;-69
2021/09/13 11:19:11;;;;;;;11.20;3.65;;;;;;;20.89;55.81;100894.00;1689435;82;25922;-66
2021/09/13 11:21:42;;;;;;;11.63;3.05;;;;;;;20.83;55.54;100890.42;1710332;82;28253;-67
2021/09/13 11:24:31;;;;;;;7.30;3.90;;;;;;;20.72;56.07;100883.16;1718763;81;25932;-68